Coventry, New York
Current Conditions -  °F | °C
As of 7:53 PM on Wednesday 17 Dec 2014 (Local Time) from KBGM Reporting Station
Overcast Overcast  
Wind Chill: 24°   Ceiling: 2100
Heat Index: 32°   Visibility: 10mi
Dew Point: 29°   Wind: 10mph
Humidity: 88%   Direction: 280°W
Pressure: 29.87"   Gusts: NA
Location:  42.3542°N, 75.7469°W
Report Text: KBGM 180053Z 28009KT 10SM OVC021 00/M02 A2987 RMK AO2 SLP127 T00001017
Loading
Personal Weather Stations






























Interactive Weather Map New forecast layout! Learn more

10-Day Weather Forecast

Advertisements
Track Severe Weather on mobile